sensor_id;sensor_type;location;lat;lon;timestamp;P1;durP1;ratioP1;P2;durP2;ratioP2
10469;SDS011;5282;47.052;15.458;2023-12-28T00:00:22;26.37;;;15.97;;
10469;SDS011;5282;47.052;15.458;2023-12-28T00:02:49;30.13;;;16.30;;
10469;SDS011;5282;47.052;15.458;2023-12-28T00:05:17;27.17;;;16.20;;
10469;SDS011;5282;47.052;15.458;2023-12-28T00:07:45;30.80;;;16.50;;
10469;SDS011;5282;47.052;15.458;2023-12-28T00:10:12;30.53;;;15.80;;
10469;SDS011;5282;47.052;15.458;2023-12-28T00:12:39;25.07;;;14.10;;
10469;SDS011;5282;47.052;15.458;2023-12-28T00:15:06;25.03;;;14.20;;
10469;SDS011;5282;47.052;15.458;2023-12-28T00:17:35;26.87;;;14.63;;
10469;SDS011;5282;47.052;15.458;2023-12-28T00:20:10;17.30;;;13.63;;
10469;SDS011;5282;47.052;15.458;2023-12-28T00:22:38;27.43;;;14.87;;
10469;SDS011;5282;47.052;15.458;2023-12-28T00:25:07;22.57;;;15.20;;
10469;SDS011;5282;47.052;15.458;2023-12-28T00:27:34;24.77;;;14.83;;
10469;SDS011;5282;47.052;15.458;2023-12-28T00:30:03;35.67;;;13.80;;
10469;SDS011;5282;47.052;15.458;2023-12-28T00:32:31;25.73;;;13.90;;
10469;SDS011;5282;47.052;15.458;2023-12-28T00:34:58;33.00;;;15.03;;
10469;SDS011;5282;47.052;15.458;2023-12-28T00:37:25;27.67;;;14.63;;
10469;SDS011;5282;47.052;15.458;2023-12-28T00:39:53;23.70;;;14.63;;
10469;SDS011;5282;47.052;15.458;2023-12-28T00:42:21;23.90;;;14.30;;
10469;SDS011;5282;47.052;15.458;2023-12-28T00:44:48;25.70;;;14.27;;
10469;SDS011;5282;47.052;15.458;2023-12-28T00:47:15;28.80;;;15.40;;
10469;SDS011;5282;47.052;15.458;2023-12-28T00:49:42;26.57;;;15.47;;
10469;SDS011;5282;47.052;15.458;2023-12-28T00:52:09;23.77;;;14.77;;
10469;SDS011;5282;47.052;15.458;2023-12-28T00:54:36;25.93;;;15.37;;
10469;SDS011;5282;47.052;15.458;2023-12-28T00:57:03;25.73;;;15.23;;
10469;SDS011;5282;47.052;15.458;2023-12-28T00:59:32;27.13;;;14.13;;
10469;SDS011;5282;47.052;15.458;2023-12-28T01:01:59;23.83;;;14.57;;
10469;SDS011;5282;47.052;15.458;2023-12-28T01:04:26;22.40;;;14.57;;
10469;SDS011;5282;47.052;15.458;2023-12-28T01:06:53;21.97;;;13.97;;
10469;SDS011;5282;47.052;15.458;2023-12-28T01:09:20;21.53;;;14.30;;
10469;SDS011;5282;47.052;15.458;2023-12-28T01:11:47;25.47;;;14.43;;
10469;SDS011;5282;47.052;15.458;2023-12-28T01:14:14;22.87;;;15.07;;
10469;SDS011;5282;47.052;15.458;2023-12-28T01:16:43;16.87;;;13.73;;
10469;SDS011;5282;47.052;15.458;2023-12-28T01:19:10;19.60;;;14.40;;
10469;SDS011;5282;47.052;15.458;2023-12-28T01:21:37;24.57;;;15.33;;
10469;SDS011;5282;47.052;15.458;2023-12-28T01:24:04;23.30;;;14.27;;
10469;SDS011;5282;47.052;15.458;2023-12-28T01:26:31;25.03;;;14.17;;
10469;SDS011;5282;47.052;15.458;2023-12-28T01:28:59;23.37;;;14.07;;
10469;SDS011;5282;47.052;15.458;2023-12-28T01:31:28;20.67;;;13.97;;
10469;SDS011;5282;47.052;15.458;2023-12-28T01:33:56;18.57;;;14.10;;
10469;SDS011;5282;47.052;15.458;2023-12-28T01:36:23;16.97;;;14.33;;
10469;SDS011;5282;47.052;15.458;2023-12-28T01:38:51;18.87;;;13.50;;
10469;SDS011;5282;47.052;15.458;2023-12-28T01:41:18;19.97;;;14.27;;
10469;SDS011;5282;47.052;15.458;2023-12-28T01:43:45;24.87;;;14.00;;
10469;SDS011;5282;47.052;15.458;2023-12-28T01:46:13;20.53;;;13.50;;
10469;SDS011;5282;47.052;15.458;2023-12-28T01:48:41;21.33;;;13.73;;
10469;SDS011;5282;47.052;15.458;2023-12-28T01:51:12;18.80;;;13.77;;
10469;SDS011;5282;47.052;15.458;2023-12-28T01:53:41;25.73;;;11.10;;
10469;SDS011;5282;47.052;15.458;2023-12-28T01:56:08;22.63;;;11.57;;
10469;SDS011;5282;47.052;15.458;2023-12-28T01:58:35;17.83;;;11.87;;
10469;SDS011;5282;47.052;15.458;2023-12-28T02:01:03;25.93;;;11.60;;
10469;SDS011;5282;47.052;15.458;2023-12-28T02:03:31;18.47;;;11.40;;
10469;SDS011;5282;47.052;15.458;2023-12-28T02:05:58;20.50;;;11.03;;
10469;SDS011;5282;47.052;15.458;2023-12-28T02:08:28;18.97;;;11.67;;
10469;SDS011;5282;47.052;15.458;2023-12-28T02:10:55;17.37;;;11.07;;
10469;SDS011;5282;47.052;15.458;2023-12-28T02:13:22;16.10;;;10.60;;
10469;SDS011;5282;47.052;15.458;2023-12-28T02:15:50;19.07;;;13.80;;
10469;SDS011;5282;47.052;15.458;2023-12-28T02:18:21;16.80;;;12.17;;
10469;SDS011;5282;47.052;15.458;2023-12-28T02:20:53;16.57;;;12.43;;
10469;SDS011;5282;47.052;15.458;2023-12-28T02:23:20;16.30;;;12.73;;
10469;SDS011;5282;47.052;15.458;2023-12-28T02:25:49;19.40;;;12.57;;
10469;SDS011;5282;47.052;15.458;2023-12-28T02:28:16;16.20;;;11.70;;
10469;SDS011;5282;47.052;15.458;2023-12-28T02:30:42;26.33;;;10.73;;
10469;SDS011;5282;47.052;15.458;2023-12-28T02:33:11;29.83;;;10.87;;
10469;SDS011;5282;47.052;15.458;2023-12-28T02:35:44;18.23;;;11.33;;
10469;SDS011;5282;47.052;15.458;2023-12-28T02:38:14;18.27;;;11.37;;
10469;SDS011;5282;47.052;15.458;2023-12-28T02:40:43;15.53;;;11.83;;
10469;SDS011;5282;47.052;15.458;2023-12-28T02:43:14;21.77;;;12.13;;
10469;SDS011;5282;47.052;15.458;2023-12-28T02:45:41;15.03;;;11.83;;
10469;SDS011;5282;47.052;15.458;2023-12-28T02:48:08;17.80;;;12.90;;
10469;SDS011;5282;47.052;15.458;2023-12-28T02:50:35;19.33;;;12.60;;
10469;SDS011;5282;47.052;15.458;2023-12-28T02:53:02;15.67;;;12.77;;
10469;SDS011;5282;47.052;15.458;2023-12-28T02:55:30;15.93;;;13.27;;
10469;SDS011;5282;47.052;15.458;2023-12-28T02:57:58;12.77;;;11.27;;
10469;SDS011;5282;47.052;15.458;2023-12-28T03:00:27;15.93;;;11.67;;
10469;SDS011;5282;47.052;15.458;2023-12-28T03:02:54;18.93;;;12.37;;
10469;SDS011;5282;47.052;15.458;2023-12-28T03:05:21;17.07;;;12.37;;
10469;SDS011;5282;47.052;15.458;2023-12-28T03:07:48;13.50;;;11.77;;
10469;SDS011;5282;47.052;15.458;2023-12-28T03:10:15;19.23;;;10.37;;
10469;SDS011;5282;47.052;15.458;2023-12-28T03:12:50;16.77;;;10.57;;
10469;SDS011;5282;47.052;15.458;2023-12-28T03:15:18;18.43;;;10.57;;
10469;SDS011;5282;47.052;15.458;2023-12-28T03:17:46;14.13;;;10.07;;
10469;SDS011;5282;47.052;15.458;2023-12-28T03:20:14;16.40;;;11.03;;
10469;SDS011;5282;47.052;15.458;2023-12-28T03:22:43;11.37;;;9.87;;
10469;SDS011;5282;47.052;15.458;2023-12-28T03:25:12;11.83;;;10.50;;
10469;SDS011;5282;47.052;15.458;2023-12-28T03:27:39;11.57;;;9.80;;
10469;SDS011;5282;47.052;15.458;2023-12-28T03:30:06;16.03;;;10.00;;
10469;SDS011;5282;47.052;15.458;2023-12-28T03:32:34;10.40;;;9.40;;
10469;SDS011;5282;47.052;15.458;2023-12-28T03:35:02;16.63;;;9.63;;
10469;SDS011;5282;47.052;15.458;2023-12-28T03:37:32;11.13;;;10.07;;
10469;SDS011;5282;47.052;15.458;2023-12-28T03:40:00;9.77;;;8.80;;
10469;SDS011;5282;47.052;15.458;2023-12-28T03:42:28;11.20;;;9.33;;
10469;SDS011;5282;47.052;15.458;2023-12-28T03:44:55;13.60;;;9.87;;
10469;SDS011;5282;47.052;15.458;2023-12-28T03:47:22;11.67;;;9.67;;
10469;SDS011;5282;47.052;15.458;2023-12-28T03:49:49;18.70;;;9.30;;
10469;SDS011;5282;47.052;15.458;2023-12-28T03:52:17;10.33;;;9.27;;
10469;SDS011;5282;47.052;15.458;2023-12-28T03:54:45;15.07;;;9.80;;
10469;SDS011;5282;47.052;15.458;2023-12-28T03:57:14;11.33;;;9.80;;
10469;SDS011;5282;47.052;15.458;2023-12-28T03:59:41;18.10;;;9.30;;
10469;SDS011;5282;47.052;15.458;2023-12-28T04:02:08;14.07;;;9.80;;
10469;SDS011;5282;47.052;15.458;2023-12-28T04:04:34;15.97;;;9.27;;
10469;SDS011;5282;47.052;15.458;2023-12-28T04:07:01;9.90;;;8.93;;
10469;SDS011;5282;47.052;15.458;2023-12-28T04:09:29;12.60;;;9.57;;
10469;SDS011;5282;47.052;15.458;2023-12-28T04:11:56;11.43;;;9.87;;
10469;SDS011;5282;47.052;15.458;2023-12-28T04:14:23;10.87;;;9.50;;
10469;SDS011;5282;47.052;15.458;2023-12-28T04:16:50;10.60;;;9.60;;
10469;SDS011;5282;47.052;15.458;2023-12-28T04:19:17;11.17;;;9.97;;
10469;SDS011;5282;47.052;15.458;2023-12-28T04:21:43;11.97;;;10.07;;
10469;SDS011;5282;47.052;15.458;2023-12-28T04:24:10;11.07;;;9.97;;
10469;SDS011;5282;47.052;15.458;2023-12-28T04:26:38;10.87;;;9.77;;
10469;SDS011;5282;47.052;15.458;2023-12-28T04:29:05;14.13;;;9.83;;
10469;SDS011;5282;47.052;15.458;2023-12-28T04:31:32;19.83;;;9.90;;
10469;SDS011;5282;47.052;15.458;2023-12-28T04:34:00;17.97;;;9.80;;
10469;SDS011;5282;47.052;15.458;2023-12-28T04:36:28;11.03;;;9.70;;
10469;SDS011;5282;47.052;15.458;2023-12-28T04:38:54;13.70;;;10.23;;
10469;SDS011;5282;47.052;15.458;2023-12-28T04:41:21;15.00;;;10.00;;
10469;SDS011;5282;47.052;15.458;2023-12-28T04:43:49;13.90;;;9.90;;
10469;SDS011;5282;47.052;15.458;2023-12-28T04:46:16;12.20;;;9.40;;
10469;SDS011;5282;47.052;15.458;2023-12-28T04:48:44;13.80;;;8.97;;
10469;SDS011;5282;47.052;15.458;2023-12-28T04:51:11;10.57;;;9.27;;
10469;SDS011;5282;47.052;15.458;2023-12-28T04:53:38;10.27;;;9.17;;
10469;SDS011;5282;47.052;15.458;2023-12-28T04:56:06;11.67;;;9.57;;
10469;SDS011;5282;47.052;15.458;2023-12-28T04:58:33;20.20;;;9.57;;
10469;SDS011;5282;47.052;15.458;2023-12-28T05:01:02;9.73;;;8.87;;
10469;SDS011;5282;47.052;15.458;2023-12-28T05:03:31;11.43;;;9.40;;
10469;SDS011;5282;47.052;15.458;2023-12-28T05:05:57;13.70;;;9.53;;
10469;SDS011;5282;47.052;15.458;2023-12-28T05:08:24;11.40;;;9.20;;
10469;SDS011;5282;47.052;15.458;2023-12-28T05:10:51;12.10;;;8.97;;
10469;SDS011;5282;47.052;15.458;2023-12-28T05:13:18;10.73;;;9.63;;
10469;SDS011;5282;47.052;15.458;2023-12-28T05:15:45;12.80;;;9.70;;
10469;SDS011;5282;47.052;15.458;2023-12-28T05:18:13;9.97;;;8.33;;
10469;SDS011;5282;47.052;15.458;2023-12-28T05:20:40;9.90;;;9.10;;
10469;SDS011;5282;47.052;15.458;2023-12-28T05:23:07;9.53;;;8.50;;
10469;SDS011;5282;47.052;15.458;2023-12-28T05:25:33;9.63;;;8.70;;
10469;SDS011;5282;47.052;15.458;2023-12-28T05:28:00;10.17;;;9.20;;
10469;SDS011;5282;47.052;15.458;2023-12-28T05:30:27;12.20;;;8.80;;
10469;SDS011;5282;47.052;15.458;2023-12-28T05:32:54;15.00;;;9.27;;
10469;SDS011;5282;47.052;15.458;2023-12-28T05:35:22;11.57;;;9.23;;
10469;SDS011;5282;47.052;15.458;2023-12-28T05:37:49;15.70;;;9.03;;
10469;SDS011;5282;47.052;15.458;2023-12-28T05:40:16;15.30;;;8.80;;
10469;SDS011;5282;47.052;15.458;2023-12-28T05:42:43;9.27;;;8.47;;
10469;SDS011;5282;47.052;15.458;2023-12-28T05:45:10;9.43;;;8.40;;
10469;SDS011;5282;47.052;15.458;2023-12-28T05:47:37;10.80;;;9.70;;
10469;SDS011;5282;47.052;15.458;2023-12-28T05:50:04;11.53;;;9.27;;
10469;SDS011;5282;47.052;15.458;2023-12-28T05:52:33;9.67;;;8.73;;
10469;SDS011;5282;47.052;15.458;2023-12-28T05:55:00;10.60;;;9.03;;
10469;SDS011;5282;47.052;15.458;2023-12-28T05:57:28;9.97;;;8.87;;
10469;SDS011;5282;47.052;15.458;2023-12-28T05:59:56;11.67;;;9.43;;
10469;SDS011;5282;47.052;15.458;2023-12-28T06:02:23;9.43;;;8.53;;
10469;SDS011;5282;47.052;15.458;2023-12-28T06:04:50;11.47;;;8.97;;
10469;SDS011;5282;47.052;15.458;2023-12-28T06:07:17;10.30;;;8.40;;
10469;SDS011;5282;47.052;15.458;2023-12-28T06:09:45;14.60;;;8.07;;
10469;SDS011;5282;47.052;15.458;2023-12-28T06:12:12;10.27;;;8.40;;
10469;SDS011;5282;47.052;15.458;2023-12-28T06:14:39;12.70;;;8.93;;
10469;SDS011;5282;47.052;15.458;2023-12-28T06:17:07;12.10;;;9.27;;
10469;SDS011;5282;47.052;15.458;2023-12-28T06:19:34;9.63;;;8.70;;
10469;SDS011;5282;47.052;15.458;2023-12-28T06:22:00;9.37;;;8.33;;
10469;SDS011;5282;47.052;15.458;2023-12-28T06:24:27;10.13;;;8.70;;
10469;SDS011;5282;47.052;15.458;2023-12-28T06:26:56;11.00;;;8.00;;
10469;SDS011;5282;47.052;15.458;2023-12-28T06:29:23;9.43;;;8.47;;
10469;SDS011;5282;47.052;15.458;2023-12-28T06:31:50;10.20;;;9.20;;
10469;SDS011;5282;47.052;15.458;2023-12-28T06:34:16;9.47;;;8.57;;
10469;SDS011;5282;47.052;15.458;2023-12-28T06:36:43;9.90;;;8.90;;
10469;SDS011;5282;47.052;15.458;2023-12-28T06:39:10;10.77;;;9.67;;
10469;SDS011;5282;47.052;15.458;2023-12-28T06:41:37;12.30;;;8.70;;
10469;SDS011;5282;47.052;15.458;2023-12-28T06:44:05;10.57;;;9.57;;
10469;SDS011;5282;47.052;15.458;2023-12-28T06:46:33;12.23;;;9.93;;
10469;SDS011;5282;47.052;15.458;2023-12-28T06:49:00;12.47;;;10.60;;
10469;SDS011;5282;47.052;15.458;2023-12-28T06:51:27;12.57;;;10.23;;
10469;SDS011;5282;47.052;15.458;2023-12-28T06:53:54;11.47;;;10.23;;
10469;SDS011;5282;47.052;15.458;2023-12-28T06:56:21;12.30;;;10.43;;
10469;SDS011;5282;47.052;15.458;2023-12-28T06:58:47;11.70;;;10.50;;
10469;SDS011;5282;47.052;15.458;2023-12-28T07:01:16;12.13;;;10.57;;
10469;SDS011;5282;47.052;15.458;2023-12-28T07:03:43;11.00;;;9.90;;
10469;SDS011;5282;47.052;15.458;2023-12-28T07:06:09;12.23;;;10.33;;
10469;SDS011;5282;47.052;15.458;2023-12-28T07:08:36;10.33;;;9.40;;
10469;SDS011;5282;47.052;15.458;2023-12-28T07:11:03;11.03;;;9.83;;
10469;SDS011;5282;47.052;15.458;2023-12-28T07:13:30;9.97;;;9.07;;
10469;SDS011;5282;47.052;15.458;2023-12-28T07:15:57;10.83;;;9.77;;
10469;SDS011;5282;47.052;15.458;2023-12-28T07:18:26;11.73;;;10.47;;
10469;SDS011;5282;47.052;15.458;2023-12-28T07:20:53;11.63;;;10.43;;
10469;SDS011;5282;47.052;15.458;2023-12-28T07:23:20;10.77;;;9.77;;
10469;SDS011;5282;47.052;15.458;2023-12-28T07:25:46;13.40;;;11.00;;
10469;SDS011;5282;47.052;15.458;2023-12-28T07:28:13;10.63;;;9.63;;
10469;SDS011;5282;47.052;15.458;2023-12-28T07:30:40;11.73;;;10.23;;
10469;SDS011;5282;47.052;15.458;2023-12-28T07:33:07;11.90;;;10.67;;
10469;SDS011;5282;47.052;15.458;2023-12-28T07:35:36;10.83;;;9.57;;
10469;SDS011;5282;47.052;15.458;2023-12-28T07:38:03;11.37;;;10.00;;
10469;SDS011;5282;47.052;15.458;2023-12-28T07:40:30;11.17;;;10.00;;
10469;SDS011;5282;47.052;15.458;2023-12-28T07:42:58;10.77;;;9.67;;
10469;SDS011;5282;47.052;15.458;2023-12-28T07:45:26;11.60;;;10.30;;
10469;SDS011;5282;47.052;15.458;2023-12-28T07:47:53;11.90;;;10.70;;
10469;SDS011;5282;47.052;15.458;2023-12-28T07:50:20;13.27;;;11.97;;
10469;SDS011;5282;47.052;15.458;2023-12-28T07:52:48;14.57;;;11.80;;
10469;SDS011;5282;47.052;15.458;2023-12-28T07:55:15;13.10;;;11.77;;
10469;SDS011;5282;47.052;15.458;2023-12-28T07:57:42;12.20;;;11.00;;
10469;SDS011;5282;47.052;15.458;2023-12-28T08:00:10;12.33;;;11.03;;
10469;SDS011;5282;47.052;15.458;2023-12-28T08:02:38;13.80;;;12.37;;
10469;SDS011;5282;47.052;15.458;2023-12-28T08:05:05;12.00;;;10.80;;
10469;SDS011;5282;47.052;15.458;2023-12-28T08:07:33;13.60;;;12.20;;
10469;SDS011;5282;47.052;15.458;2023-12-28T08:10:01;13.33;;;11.37;;
10469;SDS011;5282;47.052;15.458;2023-12-28T08:12:29;12.03;;;10.83;;
10469;SDS011;5282;47.052;15.458;2023-12-28T08:14:56;12.20;;;10.87;;
10469;SDS011;5282;47.052;15.458;2023-12-28T08:17:23;11.47;;;10.00;;
10469;SDS011;5282;47.052;15.458;2023-12-28T08:19:50;9.97;;;9.07;;
10469;SDS011;5282;47.052;15.458;2023-12-28T08:22:17;11.37;;;10.10;;
10469;SDS011;5282;47.052;15.458;2023-12-28T08:24:44;10.70;;;9.80;;
10469;SDS011;5282;47.052;15.458;2023-12-28T08:27:12;11.57;;;10.30;;
10469;SDS011;5282;47.052;15.458;2023-12-28T08:29:39;17.93;;;11.63;;
10469;SDS011;5282;47.052;15.458;2023-12-28T08:32:07;20.23;;;10.90;;
10469;SDS011;5282;47.052;15.458;2023-12-28T08:34:34;17.80;;;11.60;;
10469;SDS011;5282;47.052;15.458;2023-12-28T08:37:00;19.33;;;12.97;;
10469;SDS011;5282;47.052;15.458;2023-12-28T08:39:29;16.77;;;11.90;;
10469;SDS011;5282;47.052;15.458;2023-12-28T08:41:56;17.60;;;12.20;;
10469;SDS011;5282;47.052;15.458;2023-12-28T08:44:24;16.00;;;11.60;;
10469;SDS011;5282;47.052;15.458;2023-12-28T08:46:51;14.97;;;12.33;;
10469;SDS011;5282;47.052;15.458;2023-12-28T08:49:18;13.00;;;11.40;;
10469;SDS011;5282;47.052;15.458;2023-12-28T08:51:44;12.13;;;10.80;;
10469;SDS011;5282;47.052;15.458;2023-12-28T08:54:11;11.93;;;9.67;;
10469;SDS011;5282;47.052;15.458;2023-12-28T08:56:38;10.37;;;9.47;;
10469;SDS011;5282;47.052;15.458;2023-12-28T08:59:05;11.00;;;9.37;;
10469;SDS011;5282;47.052;15.458;2023-12-28T09:01:34;9.77;;;8.77;;
10469;SDS011;5282;47.052;15.458;2023-12-28T09:04:01;9.67;;;8.87;;
10469;SDS011;5282;47.052;15.458;2023-12-28T09:06:28;9.93;;;9.13;;
10469;SDS011;5282;47.052;15.458;2023-12-28T09:08:55;9.30;;;8.50;;
10469;SDS011;5282;47.052;15.458;2023-12-28T09:11:22;8.97;;;8.17;;
10469;SDS011;5282;47.052;15.458;2023-12-28T09:13:49;8.80;;;8.20;;
10469;SDS011;5282;47.052;15.458;2023-12-28T09:16:16;8.80;;;8.03;;
10469;SDS011;5282;47.052;15.458;2023-12-28T09:18:44;8.80;;;8.17;;
10469;SDS011;5282;47.052;15.458;2023-12-28T09:21:11;7.97;;;7.47;;
10469;SDS011;5282;47.052;15.458;2023-12-28T09:23:38;8.67;;;8.07;;
10469;SDS011;5282;47.052;15.458;2023-12-28T09:26:06;7.87;;;7.10;;
10469;SDS011;5282;47.052;15.458;2023-12-28T09:28:34;7.00;;;6.50;;
10469;SDS011;5282;47.052;15.458;2023-12-28T09:31:01;7.40;;;7.00;;
10469;SDS011;5282;47.052;15.458;2023-12-28T09:33:29;7.13;;;6.63;;
10469;SDS011;5282;47.052;15.458;2023-12-28T09:35:58;6.87;;;6.37;;
10469;SDS011;5282;47.052;15.458;2023-12-28T09:38:25;7.23;;;6.63;;
10469;SDS011;5282;47.052;15.458;2023-12-28T09:40:52;9.27;;;6.57;;
10469;SDS011;5282;47.052;15.458;2023-12-28T09:43:22;6.90;;;6.40;;
10469;SDS011;5282;47.052;15.458;2023-12-28T09:45:50;6.60;;;6.20;;
10469;SDS011;5282;47.052;15.458;2023-12-28T09:48:17;7.40;;;6.90;;
10469;SDS011;5282;47.052;15.458;2023-12-28T09:50:48;8.37;;;7.57;;
10469;SDS011;5282;47.052;15.458;2023-12-28T09:53:18;9.93;;;8.80;;
10469;SDS011;5282;47.052;15.458;2023-12-28T09:55:44;7.90;;;7.20;;
10469;SDS011;5282;47.052;15.458;2023-12-28T09:58:12;6.57;;;6.07;;
10469;SDS011;5282;47.052;15.458;2023-12-28T10:00:44;7.50;;;7.00;;
10469;SDS011;5282;47.052;15.458;2023-12-28T10:03:12;6.77;;;6.30;;
10469;SDS011;5282;47.052;15.458;2023-12-28T10:05:40;6.30;;;5.90;;
10469;SDS011;5282;47.052;15.458;2023-12-28T10:08:07;6.00;;;5.60;;
10469;SDS011;5282;47.052;15.458;2023-12-28T10:10:36;6.43;;;6.03;;
10469;SDS011;5282;47.052;15.458;2023-12-28T10:13:03;6.33;;;5.93;;
10469;SDS011;5282;47.052;15.458;2023-12-28T10:15:30;4.43;;;4.23;;
10469;SDS011;5282;47.052;15.458;2023-12-28T10:17:57;5.17;;;4.87;;
10469;SDS011;5282;47.052;15.458;2023-12-28T10:20:25;4.87;;;4.57;;
10469;SDS011;5282;47.052;15.458;2023-12-28T10:22:53;5.13;;;4.93;;
10469;SDS011;5282;47.052;15.458;2023-12-28T10:25:19;5.37;;;4.97;;
10469;SDS011;5282;47.052;15.458;2023-12-28T10:27:51;4.80;;;4.50;;
10469;SDS011;5282;47.052;15.458;2023-12-28T10:30:19;5.10;;;4.80;;
10469;SDS011;5282;47.052;15.458;2023-12-28T10:32:47;4.90;;;4.50;;
10469;SDS011;5282;47.052;15.458;2023-12-28T10:35:14;4.93;;;4.67;;
10469;SDS011;5282;47.052;15.458;2023-12-28T10:37:42;5.13;;;4.73;;
10469;SDS011;5282;47.052;15.458;2023-12-28T10:40:12;5.23;;;4.97;;
10469;SDS011;5282;47.052;15.458;2023-12-28T10:42:43;5.07;;;4.77;;
10469;SDS011;5282;47.052;15.458;2023-12-28T10:45:19;5.40;;;5.10;;
10469;SDS011;5282;47.052;15.458;2023-12-28T10:47:51;5.63;;;5.17;;
10469;SDS011;5282;47.052;15.458;2023-12-28T10:50:24;5.70;;;5.20;;
10469;SDS011;5282;47.052;15.458;2023-12-28T10:52:56;5.50;;;5.10;;
10469;SDS011;5282;47.052;15.458;2023-12-28T10:55:33;4.77;;;4.50;;
10469;SDS011;5282;47.052;15.458;2023-12-28T10:58:09;5.17;;;4.77;;
10469;SDS011;5282;47.052;15.458;2023-12-28T11:00:41;5.00;;;4.60;;
10469;SDS011;5282;47.052;15.458;2023-12-28T11:03:14;5.33;;;5.03;;
10469;SDS011;5282;47.052;15.458;2023-12-28T11:05:46;5.63;;;5.13;;
10469;SDS011;5282;47.052;15.458;2023-12-28T11:08:14;5.47;;;5.07;;
10469;SDS011;5282;47.052;15.458;2023-12-28T11:10:42;5.07;;;4.63;;
10469;SDS011;5282;47.052;15.458;2023-12-28T11:13:10;7.13;;;4.70;;
10469;SDS011;5282;47.052;15.458;2023-12-28T11:15:38;5.37;;;4.90;;
10469;SDS011;5282;47.052;15.458;2023-12-28T11:18:07;8.63;;;5.50;;
10469;SDS011;5282;47.052;15.458;2023-12-28T11:20:34;6.33;;;5.40;;
10469;SDS011;5282;47.052;15.458;2023-12-28T11:23:01;6.00;;;5.60;;
10469;SDS011;5282;47.052;15.458;2023-12-28T11:25:30;8.47;;;5.77;;
10469;SDS011;5282;47.052;15.458;2023-12-28T11:27:58;7.07;;;6.47;;
10469;SDS011;5282;47.052;15.458;2023-12-28T11:30:25;6.20;;;5.80;;
10469;SDS011;5282;47.052;15.458;2023-12-28T11:32:55;5.83;;;5.53;;
10469;SDS011;5282;47.052;15.458;2023-12-28T11:35:24;6.27;;;5.63;;
10469;SDS011;5282;47.052;15.458;2023-12-28T11:38:00;5.43;;;4.90;;
10469;SDS011;5282;47.052;15.458;2023-12-28T11:40:31;5.43;;;5.13;;
10469;SDS011;5282;47.052;15.458;2023-12-28T11:43:14;5.63;;;5.23;;
10469;SDS011;5282;47.052;15.458;2023-12-28T11:45:46;5.47;;;5.07;;
10469;SDS011;5282;47.052;15.458;2023-12-28T11:48:22;6.17;;;5.67;;
10469;SDS011;5282;47.052;15.458;2023-12-28T11:50:51;6.40;;;6.00;;
10469;SDS011;5282;47.052;15.458;2023-12-28T11:53:20;6.13;;;5.53;;
10469;SDS011;5282;47.052;15.458;2023-12-28T11:55:47;6.00;;;5.03;;
10469;SDS011;5282;47.052;15.458;2023-12-28T11:58:15;5.30;;;5.00;;
10469;SDS011;5282;47.052;15.458;2023-12-28T12:00:42;5.37;;;5.03;;
10469;SDS011;5282;47.052;15.458;2023-12-28T12:03:09;5.50;;;5.20;;
10469;SDS011;5282;47.052;15.458;2023-12-28T12:05:37;5.50;;;5.20;;
10469;SDS011;5282;47.052;15.458;2023-12-28T12:08:05;5.60;;;5.20;;
10469;SDS011;5282;47.052;15.458;2023-12-28T12:10:35;5.87;;;5.57;;
10469;SDS011;5282;47.052;15.458;2023-12-28T12:13:02;6.43;;;6.13;;
10469;SDS011;5282;47.052;15.458;2023-12-28T12:15:29;5.77;;;5.47;;
10469;SDS011;5282;47.052;15.458;2023-12-28T12:17:56;6.03;;;5.57;;
10469;SDS011;5282;47.052;15.458;2023-12-28T12:20:23;5.97;;;5.57;;
10469;SDS011;5282;47.052;15.458;2023-12-28T12:22:51;5.83;;;5.43;;
10469;SDS011;5282;47.052;15.458;2023-12-28T12:25:19;5.70;;;5.30;;
10469;SDS011;5282;47.052;15.458;2023-12-28T12:27:47;5.70;;;5.40;;
10469;SDS011;5282;47.052;15.458;2023-12-28T12:30:14;5.97;;;5.50;;
10469;SDS011;5282;47.052;15.458;2023-12-28T12:32:41;5.73;;;5.33;;
10469;SDS011;5282;47.052;15.458;2023-12-28T12:35:09;5.90;;;5.40;;
10469;SDS011;5282;47.052;15.458;2023-12-28T12:37:36;6.67;;;6.00;;
10469;SDS011;5282;47.052;15.458;2023-12-28T12:40:04;7.70;;;5.70;;
10469;SDS011;5282;47.052;15.458;2023-12-28T12:42:33;6.40;;;5.90;;
10469;SDS011;5282;47.052;15.458;2023-12-28T12:45:00;5.37;;;4.97;;
10469;SDS011;5282;47.052;15.458;2023-12-28T12:47:31;5.33;;;4.90;;
10469;SDS011;5282;47.052;15.458;2023-12-28T12:49:58;5.00;;;4.70;;
10469;SDS011;5282;47.052;15.458;2023-12-28T12:52:25;6.00;;;5.50;;
10469;SDS011;5282;47.052;15.458;2023-12-28T12:54:53;5.60;;;5.30;;
10469;SDS011;5282;47.052;15.458;2023-12-28T12:57:21;5.10;;;4.90;;
10469;SDS011;5282;47.052;15.458;2023-12-28T12:59:49;6.57;;;6.07;;
10469;SDS011;5282;47.052;15.458;2023-12-28T13:02:16;5.97;;;5.47;;
10469;SDS011;5282;47.052;15.458;2023-12-28T13:04:43;5.43;;;5.03;;
10469;SDS011;5282;47.052;15.458;2023-12-28T13:07:10;6.40;;;5.90;;
10469;SDS011;5282;47.052;15.458;2023-12-28T13:09:37;6.10;;;5.60;;
10469;SDS011;5282;47.052;15.458;2023-12-28T13:12:04;5.57;;;5.17;;
10469;SDS011;5282;47.052;15.458;2023-12-28T13:14:32;5.20;;;4.83;;
10469;SDS011;5282;47.052;15.458;2023-12-28T13:17:00;5.60;;;5.10;;
10469;SDS011;5282;47.052;15.458;2023-12-28T13:19:27;5.13;;;4.63;;
10469;SDS011;5282;47.052;15.458;2023-12-28T13:21:55;5.27;;;4.87;;
10469;SDS011;5282;47.052;15.458;2023-12-28T13:24:21;5.00;;;4.70;;
10469;SDS011;5282;47.052;15.458;2023-12-28T13:26:48;4.93;;;4.53;;
10469;SDS011;5282;47.052;15.458;2023-12-28T13:29:15;4.30;;;4.00;;
10469;SDS011;5282;47.052;15.458;2023-12-28T13:31:42;4.87;;;4.67;;
10469;SDS011;5282;47.052;15.458;2023-12-28T13:34:11;4.60;;;4.30;;
10469;SDS011;5282;47.052;15.458;2023-12-28T13:36:38;5.27;;;4.73;;
10469;SDS011;5282;47.052;15.458;2023-12-28T13:39:04;5.30;;;4.90;;
10469;SDS011;5282;47.052;15.458;2023-12-28T13:41:34;5.40;;;5.10;;
10469;SDS011;5282;47.052;15.458;2023-12-28T13:44:01;5.07;;;4.87;;
10469;SDS011;5282;47.052;15.458;2023-12-28T13:46:29;5.30;;;4.93;;
10469;SDS011;5282;47.052;15.458;2023-12-28T13:48:56;4.70;;;4.40;;
10469;SDS011;5282;47.052;15.458;2023-12-28T13:51:24;4.87;;;4.47;;
10469;SDS011;5282;47.052;15.458;2023-12-28T13:53:51;4.50;;;4.20;;
10469;SDS011;5282;47.052;15.458;2023-12-28T13:56:18;4.70;;;4.30;;
10469;SDS011;5282;47.052;15.458;2023-12-28T13:58:45;4.80;;;4.50;;
10469;SDS011;5282;47.052;15.458;2023-12-28T14:01:12;4.33;;;4.13;;
10469;SDS011;5282;47.052;15.458;2023-12-28T14:03:40;4.10;;;3.90;;
10469;SDS011;5282;47.052;15.458;2023-12-28T14:06:06;4.10;;;3.90;;
10469;SDS011;5282;47.052;15.458;2023-12-28T14:08:35;4.23;;;4.03;;
10469;SDS011;5282;47.052;15.458;2023-12-28T14:11:02;4.50;;;4.20;;
10469;SDS011;5282;47.052;15.458;2023-12-28T14:13:29;4.27;;;4.07;;
10469;SDS011;5282;47.052;15.458;2023-12-28T14:15:57;4.57;;;4.30;;
10469;SDS011;5282;47.052;15.458;2023-12-28T14:18:24;4.30;;;4.10;;
10469;SDS011;5282;47.052;15.458;2023-12-28T14:20:50;4.30;;;4.10;;
10469;SDS011;5282;47.052;15.458;2023-12-28T14:23:17;4.50;;;4.23;;
10469;SDS011;5282;47.052;15.458;2023-12-28T14:25:46;4.10;;;3.90;;
10469;SDS011;5282;47.052;15.458;2023-12-28T14:28:18;4.67;;;4.30;;
10469;SDS011;5282;47.052;15.458;2023-12-28T14:30:46;5.70;;;4.57;;
10469;SDS011;5282;47.052;15.458;2023-12-28T14:33:13;4.80;;;4.50;;
10469;SDS011;5282;47.052;15.458;2023-12-28T14:35:41;4.70;;;4.40;;
10469;SDS011;5282;47.052;15.458;2023-12-28T14:38:08;4.97;;;4.73;;